Time;durP1;ratioP1;P1;durP2;ratioP2;P2;SDS_P1;SDS_P2;PMS_P1;PMS_P2;Temp;Humidity;BMP_temperature;BMP_pressure;BME280_temperature;BME280_humidity;BME280_pressure;Samples;Min_cycle;Max_cycle;Signal;HPM_P1;HPM_P2
2022/09/13 00:00:58;;;;;;;5.37;4.70;;;16.50;1.00;;;;;;4971616;28;20178;-65
2022/09/13 00:03:25;;;;;;;18.17;5.77;;;16.40;1.00;;;;;;4971566;28;20523;-64
2022/09/13 00:05:50;;;;;;;21.23;5.37;;;16.50;1.00;;;;;;4971739;28;20916;-63
2022/09/13 00:08:17;;;;;;;13.10;6.37;;;16.40;1.00;;;;;;4972147;28;20476;-65
2022/09/13 00:10:44;;;;;;;16.13;5.80;;;16.40;1.00;;;;;;4975891;28;20205;-65
2022/09/13 00:13:11;;;;;;;6.80;5.07;;;16.30;1.00;;;;;;4975751;28;20483;-65
2022/09/13 00:15:42;;;;;;;9.77;5.20;;;16.20;1.00;;;;;;4975623;28;20894;-66
2022/09/13 00:18:08;;;;;;;7.10;5.00;;;16.20;1.00;;;;;;4973355;28;20420;-64
2022/09/13 00:20:34;;;;;;;6.47;5.70;;;16.20;1.00;;;;;;4975597;28;20410;-66
2022/09/13 00:22:59;;;;;;;7.77;5.00;;;16.10;1.00;;;;;;4975741;28;20231;-66
2022/09/13 00:25:25;;;;;;;6.33;5.73;;;16.10;1.00;;;;;;4975481;28;20174;-65
2022/09/13 00:27:51;;;;;;;9.93;4.67;;;16.20;1.00;;;;;;4975970;28;20185;-66
2022/09/13 00:30:16;;;;;;;9.00;5.50;;;16.10;1.00;;;;;;4975712;28;20170;-65
2022/09/13 00:32:42;;;;;;;5.93;4.80;;;16.10;1.00;;;;;;4974943;28;20201;-65
2022/09/13 00:35:08;;;;;;;10.07;4.73;;;16.10;1.00;;;;;;4975366;28;20221;-66
2022/09/13 00:37:34;;;;;;;14.07;5.53;;;16.10;1.00;;;;;;4975409;28;20582;-65
2022/09/13 00:40:00;;;;;;;16.03;4.73;;;16.10;1.00;;;;;;4975446;28;20500;-64
2022/09/13 00:42:27;;;;;;;10.00;4.73;;;16.10;1.00;;;;;;4975570;28;20201;-64
2022/09/13 00:45:01;;;;;;;8.30;5.00;;;16.00;1.00;;;;;;4975808;28;20424;-65
2022/09/13 00:47:42;;;;;;;5.40;4.87;;;15.90;99.90;;;;;;4975465;28;20917;-65
2022/09/13 00:50:34;;;;;;;4.73;4.33;;;15.90;99.90;;;;;;4975175;28;20501;-65
2022/09/13 00:53:12;;;;;;;7.37;4.97;;;15.90;99.90;;;;;;4975472;28;20432;-64
2022/09/13 00:55:41;;;;;;;16.67;5.77;;;15.90;99.90;;;;;;4973883;28;20881;-65
2022/09/13 00:58:15;;;;;;;6.30;4.93;;;16.10;36.20;;;;;;4974728;28;20416;-65
2022/09/13 01:00:43;;;;;;;7.27;5.23;;;16.00;22.60;;;;;;4975297;28;20443;-66
2022/09/13 01:03:12;;;;;;;8.87;5.13;;;16.00;16.40;;;;;;4974952;28;20441;-65
2022/09/13 01:05:42;;;;;;;4.83;4.33;;;16.00;1.00;;;;;;4975118;28;20731;-66
2022/09/13 01:08:16;;;;;;;8.67;5.20;;;16.00;15.20;;;;;;4974999;28;20444;-65
2022/09/13 01:10:43;;;;;;;9.27;4.67;;;15.90;91.90;;;;;;4975197;28;20409;-66
2022/09/13 01:13:16;;;;;;;8.27;4.60;;;15.90;99.90;;;;;;4974683;28;20465;-65
2022/09/13 01:15:41;;;;;;;11.87;5.00;;;15.90;87.30;;;;;;4974694;28;20922;-65
2022/09/13 01:18:09;;;;;;;13.07;4.77;;;15.80;99.90;;;;;;4974473;28;20424;-65
2022/09/13 01:21:05;;;;;;;10.33;5.20;;;15.80;99.90;;;;;;4974107;28;20177;-64
2022/09/13 01:23:52;;;;;;;8.27;4.40;;;15.90;99.90;;;;;;4974055;28;20496;-66
2022/09/13 01:26:39;;;;;;;5.70;4.00;;;15.90;99.90;;;;;;4974682;28;20504;-65
2022/09/13 01:29:42;;;;;;;6.03;4.43;;;15.70;99.90;;;;;;4974360;28;20417;-65
2022/09/13 01:32:23;;;;;;;7.10;4.90;;;15.70;99.90;;;;;;4974880;28;20972;-65
2022/09/13 01:35:06;;;;;;;7.80;5.07;;;15.70;99.90;;;;;;4974549;28;20413;-66
2022/09/13 01:37:51;;;;;;;10.20;7.10;;;15.70;99.90;;;;;;4974659;28;20996;-66
2022/09/13 01:40:31;;;;;;;12.67;6.37;;;15.70;99.90;;;;;;4974247;28;20401;-66
2022/09/13 01:43:18;;;;;;;6.53;5.40;;;15.70;28.80;;;;;;4973153;28;20842;-65
2022/09/13 01:45:52;;;;;;;11.60;5.90;;;15.70;6.00;;;;;;4973230;28;20441;-64
2022/09/13 01:48:44;;;;;;;6.93;5.40;;;15.70;1.00;;;;;;4972914;28;20413;-63
2022/09/13 01:51:35;;;;;;;8.40;5.90;;;15.70;1.00;;;;;;4971874;28;20933;-64
2022/09/13 01:54:10;;;;;;;10.07;5.60;;;15.70;1.00;;;;;;4973263;28;20419;-65
2022/09/13 01:56:57;;;;;;;6.77;4.90;;;15.70;1.00;;;;;;4972936;28;20547;-64
2022/09/13 01:59:49;;;;;;;12.43;6.47;;;15.50;29.30;;;;;;4973423;28;20447;-67
2022/09/13 02:02:22;;;;;;;8.10;5.57;;;15.50;66.70;;;;;;4974124;28;20780;-65
2022/09/13 02:04:53;;;;;;;10.73;5.77;;;15.40;22.50;;;;;;4974052;28;20431;-65
2022/09/13 02:07:31;;;;;;;7.30;5.03;;;15.50;44.90;;;;;;4973795;28;20464;-65
2022/09/13 02:10:05;;;;;;;8.67;5.03;;;15.50;1.00;;;;;;4973601;28;20824;-64
2022/09/13 02:12:33;;;;;;;8.53;4.80;;;15.50;1.00;;;;;;4972751;28;20864;-65
2022/09/13 02:15:17;;;;;;;6.20;4.67;;;15.50;1.00;;;;;;4972878;28;20863;-64
2022/09/13 02:17:51;;;;;;;12.60;4.93;;;15.50;1.00;;;;;;4972542;28;20460;-64
2022/09/13 02:20:23;;;;;;;5.40;4.90;;;15.40;97.80;;;;;;4972612;28;20952;-64
2022/09/13 02:22:56;;;;;;;10.47;4.90;;;15.40;99.90;;;;;;4972869;28;20425;-65
2022/09/13 02:25:25;;;;;;;15.47;4.70;;;15.40;99.90;;;;;;4973066;28;20411;-65
2022/09/13 02:27:57;;;;;;;17.80;5.60;;;15.30;99.90;;;;;;4972867;28;20933;-65
2022/09/13 02:30:24;;;;;;;12.47;4.60;;;15.40;99.90;;;;;;4972440;28;20413;-63
2022/09/13 02:33:11;;;;;;;13.87;5.40;;;15.40;1.00;;;;;;4971658;28;20440;-62
2022/09/13 02:35:54;;;;;;;10.27;4.60;;;15.30;1.00;;;;;;4973176;28;20444;-65
2022/09/13 02:38:25;;;;;;;7.33;6.00;;;15.30;99.90;;;;;;4973880;28;20405;-63
2022/09/13 02:41:26;;;;;;;4.17;3.77;;;15.30;99.90;;;;;;4972809;28;20886;-64
2022/09/13 02:44:00;;;;;;;7.57;5.10;;;15.20;1.00;;;;;;4989500;23;20476;-65
2022/09/13 02:46:48;;;;;;;6.57;4.43;;;15.20;1.00;;;;;;4954389;28;20422;-65
2022/09/13 02:49:37;;;;;;;9.27;3.63;;;15.20;1.00;;;;;;4952864;28;20413;-64
2022/09/13 02:52:09;;;;;;;7.83;4.80;;;15.20;1.00;;;;;;4949269;28;20582;-66
2022/09/13 02:54:50;;;;;;;5.50;4.90;;;15.10;1.00;;;;;;4952816;28;20451;-65
2022/09/13 02:57:45;;;;;;;7.10;5.00;;;15.10;1.00;;;;;;4952556;28;20821;-65
2022/09/13 03:00:11;;;;;;;6.20;5.00;;;15.10;1.00;;;;;;4917017;28;20468;-65
2022/09/13 03:02:38;;;;;;;9.70;4.40;;;15.10;99.90;;;;;;4953208;28;20426;-65
2022/09/13 03:05:04;;;;;;;8.10;4.80;;;15.00;99.90;;;;;;4953405;28;20402;-64
2022/09/13 03:07:30;;;;;;;16.83;5.10;;;15.00;99.90;;;;;;4952772;28;20414;-64
2022/09/13 03:10:06;;;;;;;11.83;5.10;;;14.90;99.90;;;;;;4952841;28;20420;-65
2022/09/13 03:12:44;;;;;;;9.70;5.37;;;14.90;1.00;;;;;;4952892;28;20217;-63
2022/09/13 03:15:12;;;;;;;7.70;4.90;;;15.00;1.00;;;;;;4953209;28;20408;-64
2022/09/13 03:17:58;;;;;;;7.27;5.33;;;15.00;1.00;;;;;;4952861;28;20938;-64
2022/09/13 03:20:43;;;;;;;7.53;5.37;;;15.00;99.90;;;;;;4952530;28;20414;-64
2022/09/13 03:23:18;;;;;;;6.17;5.20;;;14.90;1.00;;;;;;4952951;28;20445;-64
2022/09/13 03:26:39;;;;;;;9.77;6.17;;;14.90;99.90;;;;;;4953041;28;20425;-65
2022/09/13 03:29:07;;;;;;;8.90;4.63;;;14.80;99.90;;;;;;4930088;28;20422;-65
2022/09/13 03:31:49;;;;;;;6.53;5.37;;;14.80;99.90;;;;;;4952915;28;20397;-64
2022/09/13 03:34:44;;;;;;;5.60;4.87;;;14.80;99.90;;;;;;4953063;28;20733;-64
2022/09/13 03:37:16;;;;;;;15.23;6.13;;;14.80;99.90;;;;;;4935274;28;20528;-65
2022/09/13 03:40:11;;;;;;;15.47;7.00;;;14.70;1.00;;;;;;4952777;28;20860;-65
2022/09/13 03:42:42;;;;;;;12.60;5.90;;;14.70;99.90;;;;;;4957350;28;20465;-65
2022/09/13 03:45:10;;;;;;;9.87;6.07;;;14.60;1.00;;;;;;4956283;28;20417;-64
2022/09/13 03:47:39;;;;;;;16.23;7.30;;;14.60;1.00;;;;;;4956029;28;20402;-65
2022/09/13 03:50:07;;;;;;;11.47;5.80;;;14.60;1.00;;;;;;4956042;28;20911;-63
2022/09/13 03:52:34;;;;;;;9.77;6.37;;;14.60;1.00;;;;;;4956038;28;20425;-64
2022/09/13 03:55:00;;;;;;;9.30;6.40;;;14.60;1.00;;;;;;4955953;28;20444;-64
2022/09/13 03:57:26;;;;;;;8.80;6.47;;;14.60;1.00;;;;;;4955632;28;20909;-63
2022/09/13 03:59:55;;;;;;;22.23;7.30;;;14.60;43.30;;;;;;4955871;28;20174;-64
2022/09/13 04:02:22;;;;;;;12.33;7.07;;;14.60;1.00;;;;;;4955766;28;20190;-65
2022/09/13 04:04:48;;;;;;;11.97;6.90;;;14.60;1.00;;;;;;4955892;28;20407;-65
2022/09/13 04:07:16;;;;;;;14.23;6.67;;;14.60;1.00;;;;;;4955894;28;20401;-64
2022/09/13 04:09:42;;;;;;;10.47;7.07;;;14.60;99.90;;;;;;4955673;28;20409;-65
2022/09/13 04:12:12;;;;;;;15.03;7.50;;;14.50;1.00;;;;;;4955640;28;20433;-64
2022/09/13 04:14:38;;;;;;;9.00;6.37;;;14.50;1.00;;;;;;4955843;28;20200;-62
2022/09/13 04:17:04;;;;;;;12.77;7.77;;;14.50;99.90;;;;;;4955418;28;20477;-65
2022/09/13 04:19:30;;;;;;;15.57;7.10;;;14.40;99.90;;;;;;4955646;28;20341;-66
2022/09/13 04:21:56;;;;;;;13.47;6.37;;;14.50;99.90;;;;;;4955630;28;20683;-65
2022/09/13 04:24:25;;;;;;;69.77;11.47;;;14.50;1.00;;;;;;4955453;28;20418;-64
2022/09/13 04:26:52;;;;;;;8.97;7.00;;;14.50;1.00;;;;;;4951581;28;20182;-65
2022/09/13 04:29:18;;;;;;;16.00;7.00;;;14.40;1.00;;;;;;4956636;28;20509;-65
2022/09/13 04:31:48;;;;;;;8.77;5.87;;;14.50;1.00;;;;;;4954412;28;20513;-64
2022/09/13 04:34:13;;;;;;;10.23;7.60;;;14.40;1.00;;;;;;4953695;28;20201;-65
2022/09/13 04:36:39;;;;;;;18.00;8.50;;;14.20;1.00;;;;;;4953469;28;20958;-65
2022/09/13 04:39:05;;;;;;;17.03;7.60;;;14.20;1.00;;;;;;4953650;28;20178;-65
2022/09/13 04:41:34;;;;;;;19.57;8.47;;;14.20;1.00;;;;;;4953778;28;20174;-66
2022/09/13 04:44:03;;;;;;;19.13;10.20;;;14.30;1.00;;;;;;4952568;28;20541;-65
2022/09/13 04:46:29;;;;;;;56.57;12.20;;;14.40;1.00;;;;;;4952884;28;20429;-65
2022/09/13 04:48:55;;;;;;;40.50;13.13;;;14.40;1.00;;;;;;4952188;28;20805;-65
2022/09/13 04:51:24;;;;;;;42.70;12.67;;;14.40;1.00;;;;;;4950377;28;20190;-66
2022/09/13 04:53:54;;;;;;;48.70;12.90;;;14.40;1.00;;;;;;4950633;28;20461;-66
2022/09/13 04:56:22;;;;;;;37.47;12.30;;;14.40;1.00;;;;;;4950716;28;20469;-65
2022/09/13 04:58:51;;;;;;;43.10;13.47;;;14.30;1.00;;;;;;4951857;28;20426;-65
2022/09/13 05:01:17;;;;;;;57.40;13.00;;;14.30;1.00;;;;;;4950004;28;20539;-65
2022/09/13 05:03:43;;;;;;;31.00;10.13;;;14.40;1.00;;;;;;4951912;28;20554;-66
2022/09/13 05:06:11;;;;;;;30.43;10.17;;;14.30;1.00;;;;;;4949962;28;20436;-66
2022/09/13 05:08:37;;;;;;;42.20;10.70;;;14.30;1.00;;;;;;4953856;28;20643;-67
2022/09/13 05:11:03;;;;;;;52.80;11.90;;;14.40;99.90;;;;;;4966252;28;20418;-68
2022/09/13 05:13:30;;;;;;;16.80;7.60;;;14.40;99.90;;;;;;4951543;28;20445;-68
2022/09/13 05:16:00;;;;;;;13.70;6.73;;;14.50;1.00;;;;;;4960345;28;20445;-67
2022/09/13 05:18:28;;;;;;;45.27;10.17;;;14.40;1.00;;;;;;4971304;28;20496;-68
2022/09/13 05:20:55;;;;;;;70.03;11.80;;;14.50;1.00;;;;;;4962317;28;20444;-67
2022/09/13 05:23:25;;;;;;;25.83;10.60;;;14.50;1.00;;;;;;4943756;28;20480;-68
2022/09/13 05:26:02;;;;;;;113.70;15.17;;;14.60;99.90;;;;;;4954550;28;20426;-67
2022/09/13 05:28:30;;;;;;;74.23;14.17;;;14.60;99.90;;;;;;4953735;28;20414;-67
2022/09/13 05:31:03;;;;;;;32.83;10.23;;;14.70;99.90;;;;;;4952703;28;20419;-67
2022/09/13 05:33:31;;;;;;;69.90;13.97;;;14.90;1.00;;;;;;4952029;28;20434;-67
2022/09/13 05:35:57;;;;;;;45.90;10.60;;;15.20;13.00;;;;;;4952038;28;20457;-67
2022/09/13 05:38:23;;;;;;;42.30;9.90;;;15.80;99.90;;;;;;4950403;28;20926;-67
2022/09/13 05:41:02;;;;;;;42.87;10.37;;;17.20;99.90;;;;;;4952152;28;20174;-67
2022/09/13 05:43:30;;;;;;;31.23;7.80;;;19.00;1.00;;;;;;4950477;28;20981;-65
2022/09/13 05:46:00;;;;;;;63.30;9.33;;;20.00;1.00;;;;;;4951814;28;20413;-67
2022/09/13 05:48:26;;;;;;;38.30;7.80;;;20.80;99.90;;;;;;4950736;28;20425;-63
2022/09/13 05:50:51;;;;;;;26.43;6.70;;;21.50;99.90;;;;;;4950905;28;20430;-63
2022/09/13 05:53:17;;;;;;;14.47;5.70;;;21.90;99.90;;;;;;4950989;28;20198;-61
2022/09/13 05:55:43;;;;;;;11.23;5.00;;;22.20;99.90;;;;;;4950991;28;20186;-62
2022/09/13 05:58:08;;;;;;;7.33;4.40;;;22.60;99.90;;;;;;4951077;28;20173;-63
2022/09/13 06:00:34;;;;;;;5.80;5.13;;;23.30;99.90;;;;;;4951181;28;20237;-63
2022/09/13 06:03:00;;;;;;;4.80;4.00;;;24.10;99.90;;;;;;4951195;28;20198;-68
2022/09/13 06:05:25;;;;;;;17.47;4.53;;;25.10;99.90;;;;;;4949098;29;20655;-69
2022/09/13 06:07:51;;;;;;;44.97;8.30;;;26.00;99.90;;;;;;4946966;28;20190;-67
2022/09/13 06:10:17;;;;;;;24.70;7.00;;;28.10;99.90;;;;;;4950118;28;20181;-67
2022/09/13 06:12:43;;;;;;;63.23;10.63;;;28.00;99.90;;;;;;4947647;28;20233;-68
2022/09/13 06:15:10;;;;;;;68.27;10.87;;;27.00;99.90;;;;;;4947666;28;20186;-67
2022/09/13 06:17:36;;;;;;;57.77;9.03;;;26.70;99.90;;;;;;4949626;28;20559;-67
2022/09/13 06:20:02;;;;;;;69.00;10.90;;;26.60;99.90;;;;;;4949153;28;20529;-68
2022/09/13 06:22:32;;;;;;;74.20;11.77;;;25.80;99.90;;;;;;4948922;28;20564;-67
2022/09/13 06:24:58;;;;;;;77.80;12.53;;;24.80;99.90;;;;;;4949858;28;20808;-67
2022/09/13 06:27:24;;;;;;;76.27;11.40;;;24.20;99.90;;;;;;4945700;28;20446;-67
2022/09/13 06:29:49;;;;;;;56.07;10.47;;;23.50;99.90;;;;;;4950113;28;20421;-67
2022/09/13 06:32:15;;;;;;;31.23;7.50;;;22.50;99.90;;;;;;4951483;28;20206;-68
2022/09/13 06:34:41;;;;;;;11.90;5.53;;;21.50;99.90;;;;;;4952297;28;20181;-69
2022/09/13 06:37:07;;;;;;;14.90;5.73;;;20.60;99.90;;;;;;4952228;28;20206;-68
2022/09/13 06:39:33;;;;;;;27.90;6.80;;;20.20;99.90;;;;;;4952743;28;20625;-67
2022/09/13 06:41:59;;;;;;;27.63;7.10;;;19.90;99.90;;;;;;4951849;28;20178;-67
2022/09/13 06:44:25;;;;;;;16.30;6.43;;;19.80;99.90;;;;;;4949369;28;20670;-67
2022/09/13 06:46:50;;;;;;;16.20;5.63;;;19.80;99.90;;;;;;4952596;28;20413;-67
2022/09/13 06:49:16;;;;;;;22.10;6.13;;;19.90;99.90;;;;;;4951731;29;20182;-67
2022/09/13 06:51:42;;;;;;;9.50;4.80;;;19.90;99.90;;;;;;4952809;28;20185;-67
2022/09/13 06:54:08;;;;;;;13.40;6.00;;;19.90;99.90;;;;;;4952941;29;20265;-67
2022/09/13 06:56:35;;;;;;;27.53;7.13;;;19.90;99.90;;;;;;4952992;28;20598;-67
2022/09/13 06:59:04;;;;;;;12.00;5.87;;;20.00;99.90;;;;;;4955925;28;20441;-67
2022/09/13 07:01:32;;;;;;;16.43;6.77;;;20.00;99.90;;;;;;4959170;28;20432;-67
2022/09/13 07:03:59;;;;;;;7.40;4.40;;;20.20;99.90;;;;;;4957879;28;20446;-67
2022/09/13 07:06:30;;;;;;;14.97;4.80;;;20.70;99.90;;;;;;4955114;28;20406;-67
2022/09/13 07:08:58;;;;;;;11.83;5.23;;;21.20;99.90;;;;;;4957902;28;20473;-68
2022/09/13 07:11:26;;;;;;;7.23;5.07;;;21.70;99.90;;;;;;4958894;28;20424;-68
2022/09/13 07:13:56;;;;;;;7.57;4.50;;;22.00;99.90;;;;;;4957903;28;20429;-67
2022/09/13 07:16:25;;;;;;;9.27;5.03;;;22.30;99.90;;;;;;4955726;28;20481;-66
2022/09/13 07:18:53;;;;;;;7.63;5.60;;;22.30;99.90;;;;;;4953635;28;20412;-67
2022/09/13 07:21:19;;;;;;;13.40;4.90;;;22.10;99.90;;;;;;4957241;28;20512;-67
2022/09/13 07:23:45;;;;;;;76.53;10.70;;;22.20;99.90;;;;;;4956085;28;20432;-67
2022/09/13 07:26:11;;;;;;;50.63;9.63;;;22.60;99.90;;;;;;4959140;28;20422;-68
2022/09/13 07:28:39;;;;;;;13.20;6.00;;;22.60;99.90;;;;;;4955770;28;20217;-68
2022/09/13 07:31:19;;;;;;;33.57;7.60;;;22.50;99.90;;;;;;4955983;28;20185;-68
2022/09/13 07:33:45;;;;;;;28.33;8.10;;;22.70;99.90;;;;;;4955986;28;20572;-68
2022/09/13 07:36:14;;;;;;;41.90;8.07;;;23.10;99.90;;;;;;4956050;28;20450;-68
2022/09/13 07:38:44;;;;;;;20.53;6.20;;;23.40;99.90;;;;;;4955606;28;20437;-68
2022/09/13 07:41:13;;;;;;;12.63;5.40;;;23.50;99.90;;;;;;4956512;28;20410;-68
2022/09/13 07:43:39;;;;;;;25.77;7.40;;;23.50;99.90;;;;;;4955698;28;20453;-68
2022/09/13 07:46:07;;;;;;;40.27;7.67;;;23.60;99.90;;;;;;4954678;28;20496;-68
2022/09/13 07:48:36;;;;;;;28.57;6.70;;;23.90;99.90;;;;;;4955428;28;20418;-68
2022/09/13 07:51:10;;;;;;;21.53;6.47;;;23.90;99.90;;;;;;4955757;28;20902;-68
2022/09/13 07:53:37;;;;;;;85.20;11.23;;;23.90;99.90;;;;;;4955408;28;20437;-68
2022/09/13 07:56:12;;;;;;;37.77;8.03;;;24.00;99.90;;;;;;4955384;28;20468;-68
2022/09/13 07:58:40;;;;;;;18.57;7.33;;;23.80;99.90;;;;;;4955370;28;20393;-68
2022/09/13 08:01:08;;;;;;;34.27;6.93;;;23.50;99.90;;;;;;4955381;28;20500;-68
2022/09/13 08:03:35;;;;;;;39.73;7.73;;;23.30;99.90;;;;;;4955279;29;20422;-68
2022/09/13 08:06:01;;;;;;;15.67;5.53;;;23.40;99.90;;;;;;4955348;28;20432;-68
2022/09/13 08:08:28;;;;;;;16.63;5.40;;;23.60;99.90;;;;;;4955155;28;20417;-68
2022/09/13 08:10:54;;;;;;;29.23;7.43;;;23.70;99.90;;;;;;4955390;28;20414;-68
2022/09/13 08:13:19;;;;;;;11.53;4.23;;;23.80;99.90;;;;;;4955415;28;20544;-68
2022/09/13 08:15:45;;;;;;;8.70;4.80;;;24.00;99.90;;;;;;4955175;29;20661;-68
2022/09/13 08:18:11;;;;;;;7.00;4.37;;;23.70;99.90;;;;;;4954803;29;20193;-68
2022/09/13 08:20:38;;;;;;;10.93;4.30;;;23.70;99.90;;;;;;4955272;28;20209;-68
2022/09/13 08:23:05;;;;;;;10.23;5.73;;;23.50;99.90;;;;;;4955078;28;20195;-68
2022/09/13 08:25:35;;;;;;;7.10;4.10;;;24.00;99.90;;;;;;4954910;28;20406;-68
2022/09/13 08:28:05;;;;;;;7.93;4.40;;;24.20;99.90;;;;;;4954689;28;20414;-68
2022/09/13 08:30:32;;;;;;;21.27;5.00;;;24.60;99.90;;;;;;4953565;28;20414;-68
2022/09/13 08:33:01;;;;;;;14.30;6.00;;;24.80;99.90;;;;;;4954566;28;20430;-68
2022/09/13 08:35:28;;;;;;;40.70;9.87;;;25.00;99.90;;;;;;4953490;28;20789;-68
2022/09/13 08:37:54;;;;;;;26.13;7.03;;;25.20;99.90;;;;;;4954592;28;20552;-69
2022/09/13 08:40:23;;;;;;;41.40;8.13;;;25.30;99.90;;;;;;4955002;28;21062;-68
2022/09/13 08:43:22;;;;;;;21.67;5.80;;;25.40;99.90;;;;;;4955232;28;20461;-68
2022/09/13 08:45:55;;;;;;;10.10;5.00;;;25.30;99.90;;;;;;4954833;28;20402;-68
2022/09/13 08:48:29;;;;;;;20.17;5.30;;;25.30;99.90;;;;;;4954214;28;20398;-68
2022/09/13 08:51:02;;;;;;;41.83;7.10;;;25.30;99.90;;;;;;4954537;28;20735;-68
2022/09/13 08:53:30;;;;;;;39.40;8.70;;;25.20;99.90;;;;;;4954271;28;20426;-68
2022/09/13 08:56:08;;;;;;;49.70;9.67;;;25.10;99.90;;;;;;4954151;28;20758;-68
2022/09/13 08:58:55;;;;;;;10.13;4.80;;;25.10;99.90;;;;;;4954111;28;20490;-68
2022/09/13 09:01:49;;;;;;;35.53;6.87;;;25.10;99.90;;;;;;4954437;29;20714;-68
2022/09/13 09:04:23;;;;;;;25.30;5.33;;;25.20;99.90;;;;;;4953207;28;20409;-68
2022/09/13 09:06:49;;;;;;;16.33;5.70;;;25.10;99.90;;;;;;4952998;29;20416;-68
2022/09/13 09:09:19;;;;;;;29.77;7.47;;;24.60;99.90;;;;;;4953960;28;20405;-68
2022/09/13 09:11:58;;;;;;;57.37;10.30;;;24.70;99.90;;;;;;4954245;28;20267;-69
2022/09/13 09:14:38;;;;;;;23.17;5.33;;;24.80;99.90;;;;;;4954231;28;20433;-68
2022/09/13 09:17:11;;;;;;;7.50;4.07;;;25.20;99.90;;;;;;4953791;28;20551;-68
2022/09/13 09:19:42;;;;;;;6.60;4.60;;;25.30;99.90;;;;;;4954164;28;20394;-68
2022/09/13 09:22:16;;;;;;;20.03;4.50;;;25.30;99.90;;;;;;4954088;28;20922;-69
2022/09/13 09:24:47;;;;;;;19.83;5.20;;;25.50;99.90;;;;;;4954591;28;20492;-68
2022/09/13 09:27:15;;;;;;;27.53;7.33;;;25.70;99.90;;;;;;4952703;28;20417;-68
2022/09/13 09:29:45;;;;;;;19.00;4.80;;;25.90;99.90;;;;;;4952916;28;20420;-68
2022/09/13 09:32:32;;;;;;;35.50;7.13;;;26.10;99.90;;;;;;4952961;28;20504;-67
2022/09/13 09:35:19;;;;;;;13.20;4.03;;;26.20;99.90;;;;;;4953955;28;20936;-68
2022/09/13 09:38:01;;;;;;;16.47;4.43;;;26.30;99.90;;;;;;4953693;28;20465;-68
2022/09/13 09:40:28;;;;;;;9.20;4.00;;;26.10;99.90;;;;;;4953724;28;20412;-68
2022/09/13 09:42:54;;;;;;;11.57;4.40;;;26.00;99.90;;;;;;4953274;28;20450;-68
2022/09/13 09:45:37;;;;;;;12.60;4.30;;;26.10;99.90;;;;;;4953548;28;20453;-68
2022/09/13 09:48:11;;;;;;;30.50;6.70;;;26.30;99.90;;;;;;4953481;28;20438;-68
2022/09/13 09:50:42;;;;;;;24.90;5.30;;;26.30;99.90;;;;;;4953712;28;20497;-68
2022/09/13 09:53:15;;;;;;;12.00;4.10;;;26.50;99.90;;;;;;4953265;28;20783;-69
2022/09/13 09:55:59;;;;;;;21.40;4.53;;;26.30;99.90;;;;;;4953372;28;20501;-69
2022/09/13 09:58:42;;;;;;;48.90;7.90;;;26.20;99.90;;;;;;4953368;28;20420;-68
2022/09/13 10:01:22;;;;;;;12.63;4.70;;;26.10;99.90;;;;;;4953396;28;20776;-68
2022/09/13 10:03:57;;;;;;;33.40;6.90;;;26.00;99.90;;;;;;4953411;28;20430;-69
2022/09/13 10:06:27;;;;;;;17.67;6.60;;;26.10;99.90;;;;;;4951957;28;20500;-68
2022/09/13 10:09:03;;;;;;;12.43;4.60;;;25.90;99.90;;;;;;4953345;28;20406;-67
2022/09/13 10:11:49;;;;;;;10.17;3.57;;;25.70;99.90;;;;;;4953320;28;20401;-67
2022/09/13 10:14:33;;;;;;;16.33;4.57;;;25.50;99.90;;;;;;4953420;28;20402;-68
2022/09/13 10:17:16;;;;;;;12.10;4.10;;;25.60;99.90;;;;;;4953521;28;20553;-68
2022/09/13 10:20:00;;;;;;;9.00;3.00;;;25.90;99.90;;;;;;4953273;28;20683;-68
2022/09/13 10:22:31;;;;;;;8.57;3.70;;;26.10;99.90;;;;;;4953595;28;20445;-68
2022/09/13 10:25:21;;;;;;;35.37;6.73;;;26.10;99.90;;;;;;4953777;28;20406;-68
2022/09/13 10:27:51;;;;;;;21.53;4.60;;;26.30;99.90;;;;;;4953677;28;20425;-68
2022/09/13 10:30:33;;;;;;;30.53;5.40;;;26.10;99.90;;;;;;4953160;28;20512;-68
2022/09/13 10:32:59;;;;;;;15.87;4.10;;;26.00;99.90;;;;;;4952160;28;20429;-68
2022/09/13 10:35:26;;;;;;;3.23;2.50;;;25.80;99.90;;;;;;4953778;28;20662;-69
2022/09/13 10:37:52;;;;;;;41.87;5.57;;;25.70;99.90;;;;;;4953371;28;20468;-68
2022/09/13 10:40:32;;;;;;;5.87;3.03;;;25.80;99.90;;;;;;4953631;28;20736;-67
2022/09/13 10:43:02;;;;;;;5.03;2.50;;;25.70;99.90;;;;;;4953900;28;20244;-68
2022/09/13 10:45:30;;;;;;;9.63;3.10;;;25.80;99.90;;;;;;4953330;28;20413;-68
2022/09/13 10:48:15;;;;;;;63.60;8.33;;;25.80;99.90;;;;;;4952809;28;20476;-69
2022/09/13 10:51:06;;;;;;;105.50;12.97;;;25.80;99.90;;;;;;4952816;28;20445;-69
2022/09/13 10:53:35;;;;;;;31.43;5.30;;;25.80;99.90;;;;;;4952345;28;20453;-67
2022/09/13 10:56:02;;;;;;;24.73;5.77;;;25.80;99.90;;;;;;4952851;28;20496;-69
2022/09/13 10:58:28;;;;;;;20.67;4.97;;;25.80;99.90;;;;;;4952526;28;20403;-69
2022/09/13 11:01:15;;;;;;;34.57;4.90;;;25.80;99.90;;;;;;4952555;28;20745;-67
2022/09/13 11:03:48;;;;;;;12.50;5.53;;;25.90;99.90;;;;;;4952380;28;20431;-68
2022/09/13 11:06:35;;;;;;;9.80;2.90;;;26.10;99.90;;;;;;4952942;28;20410;-68
2022/09/13 11:09:30;;;;;;;17.00;3.60;;;26.20;99.90;;;;;;4952785;28;20761;-69
2022/09/13 11:12:07;;;;;;;7.00;2.50;;;26.60;99.90;;;;;;4952493;28;20420;-68
2022/09/13 11:25:21;;;;;;;20.37;4.50;;;26.30;99.90;;;;;;4945462;28;20527;-67
2022/09/13 11:27:56;;;;;;;10.80;3.07;;;26.70;99.90;;;;;;4919794;28;20457;-68
2022/09/13 11:30:24;;;;;;;45.93;7.47;;;26.70;99.90;;;;;;4952446;28;20465;-68
2022/09/13 11:33:32;;;;;;;32.60;5.87;;;26.70;99.90;;;;;;4948919;28;20457;-67
2022/09/13 11:36:03;;;;;;;6.03;3.87;;;26.60;99.90;;;;;;4952838;28;20410;-68
2022/09/13 11:38:57;;;;;;;11.90;3.63;;;26.20;99.90;;;;;;4952337;28;20449;-67
2022/09/13 11:41:32;;;;;;;6.80;2.80;;;26.40;99.90;;;;;;4933318;29;20486;-67
2022/09/13 11:44:16;;;;;;;7.27;2.97;;;26.50;99.90;;;;;;4932820;29;20446;-68
2022/09/13 11:46:48;;;;;;;5.40;2.60;;;26.50;99.90;;;;;;4932986;29;20770;-67
2022/09/13 11:49:13;;;;;;;28.67;3.87;;;26.60;99.90;;;;;;4932744;29;20410;-68
2022/09/13 11:51:58;;;;;;;30.87;4.93;;;26.60;99.90;;;;;;4947953;28;20452;-68
2022/09/13 11:55:10;;;;;;;11.30;3.70;;;26.60;99.90;;;;;;4971436;28;20192;-68
2022/09/13 11:58:04;;;;;;;4.37;2.23;;;26.70;99.90;;;;;;4971060;28;20471;-68
2022/09/13 12:00:39;;;;;;;9.20;3.37;;;26.50;99.90;;;;;;4971320;28;20417;-67
2022/09/13 12:03:11;;;;;;;7.73;2.90;;;26.60;99.90;;;;;;4951853;28;20818;-67
2022/09/13 12:05:53;;;;;;;26.83;5.80;;;26.60;99.90;;;;;;4953286;28;20457;-67
2022/09/13 12:08:31;;;;;;;7.73;2.90;;;26.70;99.90;;;;;;4954451;28;21016;-68
2022/09/13 12:11:08;;;;;;;6.87;2.50;;;26.80;99.90;;;;;;4950295;29;20434;-68
2022/09/13 12:14:06;;;;;;;20.37;2.90;;;26.80;99.90;;;;;;4953905;28;20440;-68
2022/09/13 12:16:43;;;;;;;12.77;3.13;;;26.70;99.90;;;;;;4949200;29;20549;-68
2022/09/13 12:19:40;;;;;;;13.10;2.80;;;26.80;99.90;;;;;;4954710;28;20508;-67
2022/09/13 12:22:08;;;;;;;22.07;4.67;;;26.70;99.90;;;;;;4936458;29;20419;-68
2022/09/13 12:24:49;;;;;;;10.70;3.00;;;26.70;99.90;;;;;;4936209;29;20465;-68
2022/09/13 12:27:44;;;;;;;21.70;3.00;;;26.60;99.90;;;;;;4936058;29;20416;-68
2022/09/13 12:30:15;;;;;;;18.73;3.67;;;26.70;99.90;;;;;;4936194;29;20412;-68
2022/09/13 12:32:43;;;;;;;2.10;1.87;;;26.70;99.90;;;;;;4936304;29;20438;-68
2022/09/13 12:35:29;;;;;;;10.83;2.40;;;26.70;99.90;;;;;;4936328;29;20417;-67
2022/09/13 12:38:25;;;;;;;6.37;2.23;;;26.70;99.90;;;;;;4915681;29;20841;-68
2022/09/13 12:41:16;;;;;;;5.53;2.00;;;26.50;99.90;;;;;;4935909;29;20462;-67
2022/09/13 12:44:01;;;;;;;14.70;2.63;;;26.50;99.90;;;;;;4935922;29;20450;-68
2022/09/13 12:47:10;;;;;;;6.73;3.10;;;26.50;99.90;;;;;;4936122;29;20462;-68
2022/09/13 12:49:54;;;;;;;4.03;2.33;;;26.50;99.90;;;;;;4934284;29;20426;-67
2022/09/13 12:52:45;;;;;;;7.17;2.10;;;26.40;99.90;;;;;;4935631;29;20493;-68
2022/09/13 12:55:28;;;;;;;18.03;2.70;;;26.40;99.90;;;;;;4936009;29;20399;-68
2022/09/13 12:58:05;;;;;;;22.10;4.33;;;26.40;99.90;;;;;;4935534;29;20441;-68
2022/09/13 13:00:57;;;;;;;15.97;3.33;;;26.50;99.90;;;;;;4935809;29;20496;-68
2022/09/13 13:03:30;;;;;;;10.43;2.80;;;26.60;99.90;;;;;;4935982;29;20414;-67
2022/09/13 13:06:19;;;;;;;3.00;2.07;;;26.50;99.90;;;;;;4935999;29;20775;-67
2022/09/13 13:08:53;;;;;;;16.67;2.40;;;26.60;99.90;;;;;;4935832;29;20493;-68
2022/09/13 13:11:23;;;;;;;3.30;1.97;;;26.70;99.90;;;;;;4935720;29;20557;-68
2022/09/13 13:14:08;;;;;;;10.43;1.93;;;26.80;99.90;;;;;;4935617;29;20969;-68
2022/09/13 13:16:39;;;;;;;9.47;2.37;;;26.70;99.90;;;;;;4934605;29;20458;-67
2022/09/13 13:19:35;;;;;;;4.10;1.60;;;26.60;99.90;;;;;;4935440;29;20422;-67
2022/09/13 13:22:46;;;;;;;2.13;1.90;;;26.60;99.90;;;;;;4935508;29;20411;-67
2022/09/13 13:25:33;;;;;;;4.87;2.07;;;26.60;99.90;;;;;;4933252;29;20411;-66